createdAt,value
2018-06-22T00:04:18.622Z,2.67
2018-06-22T00:09:21.646Z,2.97
2018-06-22T00:14:24.643Z,2.93
2018-06-22T00:19:27.612Z,3.10
2018-06-22T00:24:30.620Z,2.90
2018-06-22T00:29:33.613Z,3.00
2018-06-22T00:34:36.570Z,4.30
2018-06-22T00:39:39.635Z,3.70
2018-06-22T00:44:42.572Z,3.37
2018-06-22T00:49:45.573Z,2.80
2018-06-22T00:54:48.519Z,2.83
2018-06-22T00:59:51.488Z,2.67
2018-06-22T01:04:54.480Z,3.40
2018-06-22T01:09:57.735Z,3.00
2018-06-22T01:15:00.697Z,3.10
2018-06-22T01:20:03.719Z,3.20
2018-06-22T01:25:06.600Z,3.33
2018-06-22T01:30:09.531Z,3.40
2018-06-22T01:35:12.515Z,3.87
2018-06-22T01:40:15.545Z,2.80
2018-06-22T01:45:18.579Z,3.60
2018-06-22T01:50:21.592Z,4.70
2018-06-22T01:55:25.184Z,4.40
2018-06-22T02:00:29.015Z,4.83
2018-06-22T02:05:32.161Z,4.87
2018-06-22T02:10:35.210Z,4.17
2018-06-22T02:15:38.210Z,3.80
2018-06-22T02:20:41.188Z,4.30
2018-06-22T02:25:44.164Z,5.43
2018-06-22T02:30:47.142Z,4.00
2018-06-22T02:35:50.454Z,3.50
2018-06-22T02:40:53.808Z,4.30
2018-06-22T02:45:56.852Z,3.40
2018-06-22T02:50:59.999Z,3.43
2018-06-22T02:56:02.999Z,3.53
2018-06-22T03:01:06.932Z,5.23
2018-06-22T03:06:11.225Z,4.17
2018-06-22T03:11:14.192Z,4.30
2018-06-22T03:16:17.188Z,3.97
2018-06-22T03:21:20.176Z,3.10
2018-06-22T03:26:23.220Z,3.77
2018-06-22T03:31:26.220Z,3.70
2018-06-22T03:36:29.201Z,2.70
2018-06-22T03:41:32.179Z,2.50
2018-06-22T03:46:35.443Z,2.63
2018-06-22T03:51:38.416Z,2.90
2018-06-22T03:56:41.444Z,2.87
2018-06-22T04:01:44.400Z,3.40
2018-06-22T04:06:47.415Z,2.67
2018-06-22T04:11:50.689Z,2.57
2018-06-22T04:16:53.707Z,2.80
2018-06-22T04:21:56.717Z,2.67
2018-06-22T04:26:59.697Z,2.27
2018-06-22T04:32:02.715Z,3.50
2018-06-22T04:37:05.783Z,3.17
2018-06-22T04:42:09.052Z,2.27
2018-06-22T04:47:12.065Z,2.53
2018-06-22T04:52:15.069Z,3.83
2018-06-22T04:57:18.064Z,2.60
2018-06-22T05:02:21.136Z,2.93
2018-06-22T05:07:24.127Z,3.00
2018-06-22T05:12:27.344Z,2.57
2018-06-22T05:17:30.870Z,2.60
2018-06-22T05:22:33.861Z,2.47
2018-06-22T05:27:37.371Z,2.37
2018-06-22T05:32:40.349Z,2.83
2018-06-22T05:37:43.355Z,3.10
2018-06-22T05:42:46.381Z,2.50
2018-06-22T05:47:49.357Z,2.70
2018-06-22T05:52:52.372Z,2.83
2018-06-22T05:57:55.382Z,2.60
2018-06-22T06:02:58.420Z,2.40
2018-06-22T06:08:01.450Z,2.50
2018-06-22T06:13:04.694Z,2.20
2018-06-22T06:18:07.685Z,2.87
2018-06-22T06:23:10.740Z,3.20
2018-06-22T06:28:13.767Z,3.07
2018-06-22T06:33:16.816Z,2.97
2018-06-22T06:38:19.817Z,3.10
2018-06-22T06:43:22.784Z,2.37
2018-06-22T06:48:25.797Z,2.50
2018-06-22T06:53:28.911Z,2.97
2018-06-22T06:58:31.924Z,2.60
2018-06-22T07:03:34.927Z,3.40
2018-06-22T07:08:38.133Z,2.57
2018-06-22T07:13:41.236Z,2.87
2018-06-22T07:18:44.294Z,2.67
2018-06-22T07:23:47.238Z,3.30
2018-06-22T07:28:50.309Z,3.30
2018-06-22T07:33:53.378Z,2.73
2018-06-22T07:38:56.411Z,2.93
2018-06-22T07:43:59.500Z,2.37
2018-06-22T07:49:02.440Z,2.50
2018-06-22T07:54:05.521Z,2.67
2018-06-22T07:59:08.717Z,3.23
2018-06-22T08:04:11.791Z,3.23
2018-06-22T08:09:14.836Z,3.00
2018-06-22T08:14:17.813Z,2.30
2018-06-22T08:19:21.348Z,2.90
2018-06-22T08:24:24.812Z,2.90
2018-06-22T08:29:27.865Z,2.50
2018-06-22T08:34:31.028Z,2.80
2018-06-22T08:39:34.049Z,2.53
2018-06-22T08:44:37.198Z,2.80
2018-06-22T08:49:40.232Z,2.37
2018-06-22T08:54:43.287Z,2.50
2018-06-22T08:59:46.308Z,2.70
2018-06-22T09:04:49.369Z,2.97
2018-06-22T09:09:52.360Z,2.60
2018-06-22T09:14:55.344Z,2.67
2018-06-22T09:19:59.111Z,2.90
2018-06-22T09:25:02.154Z,2.70
2018-06-22T09:30:05.488Z,3.80
2018-06-22T09:35:08.598Z,3.10
2018-06-22T09:40:11.628Z,3.30
2018-06-22T09:45:14.667Z,3.07
2018-06-22T09:50:17.814Z,3.60
2018-06-22T09:55:20.968Z,4.20
2018-06-22T10:00:24.012Z,3.77
2018-06-22T10:05:27.048Z,4.00
2018-06-22T10:10:30.037Z,3.27
2018-06-22T10:15:33.166Z,3.90
2018-06-22T10:20:36.175Z,4.03
2018-06-22T10:25:39.520Z,4.40
2018-06-22T10:30:42.536Z,3.30
2018-06-22T10:35:45.575Z,3.80
2018-06-22T10:40:48.638Z,4.00
2018-06-22T10:45:51.671Z,4.60
2018-06-22T10:50:54.780Z,4.20
2018-06-22T10:55:57.881Z,3.90
2018-06-22T11:01:01.166Z,3.93
2018-06-22T11:06:04.198Z,4.20
2018-06-22T11:11:07.260Z,3.50
2018-06-22T11:16:10.300Z,4.27
2018-06-22T11:21:13.574Z,3.00
2018-06-22T11:26:16.901Z,4.13
2018-06-22T11:31:20.313Z,3.90
2018-06-22T11:36:23.399Z,3.90
2018-06-22T11:41:26.518Z,3.03
2018-06-22T11:46:29.516Z,3.00
2018-06-22T11:51:32.592Z,3.40
2018-06-22T11:56:35.636Z,3.37
2018-06-22T12:01:38.671Z,3.20
2018-06-22T12:06:41.697Z,3.00
2018-06-22T12:11:44.696Z,3.43
2018-06-22T12:16:47.755Z,3.20
2018-06-22T12:21:50.896Z,3.40
2018-06-22T12:26:53.917Z,2.93
2018-06-22T12:31:57.907Z,2.67
2018-06-22T12:37:00.944Z,3.20
2018-06-22T12:42:04.071Z,3.53
2018-06-22T12:47:07.159Z,3.53
2018-06-22T12:52:10.208Z,3.93
2018-06-22T12:57:13.284Z,3.83
2018-06-22T13:02:16.450Z,3.77
2018-06-22T13:07:19.513Z,3.50
2018-06-22T13:12:22.638Z,3.80
2018-06-22T13:17:25.898Z,3.80
2018-06-22T13:22:28.939Z,4.10
2018-06-22T13:27:32.000Z,3.63
2018-06-22T13:32:35.045Z,3.60
2018-06-22T13:37:38.416Z,3.60
2018-06-22T13:42:41.504Z,4.50
2018-06-22T13:47:44.547Z,3.60
2018-06-22T13:52:47.707Z,4.13
2018-06-22T13:57:50.759Z,3.70
2018-06-22T14:02:53.761Z,4.03
2018-06-22T14:07:56.880Z,3.70
2018-06-22T14:12:59.992Z,4.33
2018-06-22T14:18:03.220Z,4.07
2018-06-22T14:23:06.231Z,3.90
2018-06-22T14:28:09.523Z,3.67
2018-06-22T14:33:12.685Z,3.53
2018-06-22T14:38:16.059Z,3.30
2018-06-22T14:43:19.491Z,2.60
2018-06-22T14:48:22.588Z,3.53
2018-06-22T14:53:31.413Z,2.90
2018-06-22T14:58:40.042Z,3.20
2018-06-22T15:03:48.685Z,3.07
2018-06-22T15:08:51.725Z,3.63
2018-06-22T15:13:54.741Z,3.87
2018-06-22T15:18:57.973Z,3.10
2018-06-22T15:24:01.019Z,3.30
2018-06-22T15:29:04.356Z,3.80
2018-06-22T15:34:13.152Z,2.80
2018-06-22T15:39:21.973Z,2.43
2018-06-22T15:44:32.616Z,3.20
2018-06-22T15:49:41.761Z,3.30
2018-06-22T15:54:50.533Z,2.93
2018-06-22T15:59:53.651Z,2.40
2018-06-22T16:04:56.866Z,2.40
2018-06-22T16:10:01.125Z,2.97
2018-06-22T16:15:13.771Z,2.80
2018-06-22T16:20:22.548Z,3.40
2018-06-22T16:25:31.308Z,3.53
2018-06-22T16:30:34.343Z,2.70
2018-06-22T16:35:37.375Z,3.10
2018-06-22T16:40:40.419Z,3.23
2018-06-22T16:45:43.542Z,3.07
2018-06-22T16:50:46.773Z,3.17
2018-06-22T16:55:49.771Z,2.03
2018-06-22T17:00:52.900Z,2.30
2018-06-22T17:05:56.225Z,1.90
2018-06-22T17:11:04.832Z,2.60
2018-06-22T17:16:13.708Z,2.20
2018-06-22T17:21:17.041Z,2.90
2018-06-22T17:26:20.316Z,2.50
2018-06-22T17:31:23.618Z,2.67
2018-06-22T17:36:26.711Z,2.80
2018-06-22T17:41:29.910Z,2.87
2018-06-22T17:46:33.105Z,2.70
2018-06-22T17:51:36.141Z,2.70
2018-06-22T17:56:39.553Z,2.63
2018-06-22T18:01:48.425Z,2.87
2018-06-22T18:06:57.201Z,2.90
2018-06-22T18:12:06.090Z,3.00
2018-06-22T18:17:09.068Z,2.80
2018-06-22T18:22:12.393Z,3.07
2018-06-22T18:27:15.531Z,3.23
2018-06-22T18:32:18.624Z,2.53
2018-06-22T18:37:21.863Z,3.13
2018-06-22T18:42:24.875Z,4.00
2018-06-22T18:47:27.930Z,3.43
2018-06-22T18:52:36.771Z,3.43
2018-06-22T18:57:45.527Z,2.33
2018-06-22T19:02:54.443Z,3.50
2018-06-22T19:07:57.560Z,2.60
2018-06-22T19:13:00.750Z,2.97
2018-06-22T19:18:03.809Z,3.23
2018-06-22T19:23:06.956Z,2.40
2018-06-22T19:28:10.045Z,2.60
2018-06-22T19:33:13.141Z,3.10
2018-06-22T19:38:16.274Z,3.00
2018-06-22T19:43:25.094Z,2.77
2018-06-22T19:48:33.944Z,2.80
2018-06-22T19:53:42.627Z,2.80
2018-06-22T19:58:45.888Z,2.80
2018-06-22T20:03:49.119Z,2.30
2018-06-22T20:08:52.496Z,2.27
2018-06-22T20:13:55.846Z,2.10
2018-06-22T20:18:59.147Z,2.37
2018-06-22T20:24:02.372Z,2.50
2018-06-22T20:29:05.532Z,2.50
2018-06-22T20:34:14.553Z,2.70
2018-06-22T20:39:23.335Z,2.40
2018-06-22T20:44:32.315Z,2.30
2018-06-22T20:49:41.142Z,2.33
2018-06-22T20:54:44.354Z,2.60
2018-06-22T20:59:47.541Z,2.73
2018-06-22T21:04:50.770Z,2.30
2018-06-22T21:09:54.071Z,2.80
2018-06-22T21:14:57.073Z,2.20
2018-06-22T21:20:00.291Z,2.80
2018-06-22T21:25:03.741Z,2.70
2018-06-22T21:30:12.358Z,2.70
2018-06-22T21:35:21.039Z,3.20
2018-06-22T21:40:24.144Z,2.50
2018-06-22T21:45:27.421Z,2.70
2018-06-22T21:50:30.551Z,2.70
2018-06-22T21:55:33.564Z,2.93
2018-06-22T22:00:36.874Z,3.10
2018-06-22T22:05:40.144Z,3.43
2018-06-22T22:10:48.826Z,3.47
2018-06-22T22:15:52.910Z,4.33
2018-06-22T22:20:56.860Z,4.87
2018-06-22T22:26:01.067Z,3.80
2018-06-22T22:31:05.115Z,3.27
2018-06-22T22:36:09.136Z,4.30
2018-06-22T22:41:13.119Z,3.50
2018-06-22T22:46:16.699Z,4.70
2018-06-22T22:51:20.425Z,4.60
2018-06-22T22:56:24.311Z,3.67
2018-06-22T23:01:28.076Z,4.00
2018-06-22T23:06:32.516Z,4.30
2018-06-22T23:11:36.379Z,4.13
2018-06-22T23:16:40.273Z,3.30
2018-06-22T23:21:43.977Z,4.83
2018-06-22T23:26:48.111Z,4.40
2018-06-22T23:31:52.417Z,4.27
2018-06-22T23:36:56.367Z,5.30
2018-06-22T23:42:00.365Z,4.77
2018-06-22T23:47:04.312Z,3.70
2018-06-22T23:52:08.149Z,3.70
2018-06-22T23:57:12.158Z,5.57
